createdAt,value
2022-11-10T00:01:30.273Z,1.30
2022-11-10T00:04:03.597Z,1.05
2022-11-10T00:06:38.207Z,1.17
2022-11-10T00:09:17.448Z,1.00
2022-11-10T00:11:55.796Z,1.25
2022-11-10T00:14:45.469Z,1.40
2022-11-10T00:17:19.493Z,1.30
2022-11-10T00:19:53.743Z,1.35
2022-11-10T00:22:27.761Z,1.30
2022-11-10T00:25:01.670Z,1.40
2022-11-10T00:27:41.144Z,1.25
2022-11-10T00:30:17.240Z,1.20
2022-11-10T00:32:52.837Z,1.10
2022-11-10T00:35:29.727Z,1.17
2022-11-10T00:38:06.075Z,1.25
2022-11-10T00:40:53.949Z,1.15
2022-11-10T00:43:30.635Z,1.30
2022-11-10T00:46:07.613Z,1.20
2022-11-10T00:48:40.772Z,1.40
2022-11-10T00:51:21.795Z,1.20
2022-11-10T00:53:55.392Z,1.17
2022-11-10T00:56:29.646Z,1.33
2022-11-10T00:59:09.073Z,1.15
2022-11-10T01:01:42.858Z,1.30
2022-11-10T01:04:18.828Z,1.35
2022-11-10T01:07:07.888Z,1.25
2022-11-10T01:09:43.373Z,1.23
2022-11-10T01:12:18.975Z,1.20
2022-11-10T01:14:56.061Z,1.02
2022-11-10T01:17:33.041Z,1.00
2022-11-10T01:20:09.748Z,1.30
2022-11-10T01:22:43.648Z,1.40
2022-11-10T01:25:20.709Z,1.27
2022-11-10T01:27:56.320Z,1.40
2022-11-10T01:30:32.850Z,1.17
2022-11-10T01:33:09.487Z,1.30
2022-11-10T01:35:45.239Z,1.50
2022-11-10T01:38:22.366Z,1.20
2022-11-10T01:40:58.811Z,1.45
2022-11-10T01:43:35.085Z,1.30
2022-11-10T01:46:12.525Z,1.23
2022-11-10T01:48:51.872Z,1.30
2022-11-10T01:51:32.729Z,1.17
2022-11-10T01:54:26.859Z,1.40
2022-11-10T01:57:08.733Z,1.35
2022-11-10T01:59:49.845Z,1.23
2022-11-10T02:02:46.223Z,1.20
2022-11-10T02:05:23.479Z,1.27
2022-11-10T02:08:01.572Z,1.17
2022-11-10T02:10:36.096Z,1.27
2022-11-10T02:13:10.289Z,1.27
2022-11-10T02:15:47.883Z,1.42
2022-11-10T02:18:27.235Z,1.33
2022-11-10T02:21:08.219Z,1.42
2022-11-10T02:23:55.280Z,1.10
2022-11-10T02:26:34.054Z,1.13
2022-11-10T02:29:09.154Z,1.20
2022-11-10T02:31:48.441Z,1.38
2022-11-10T02:34:28.015Z,1.13
2022-11-10T02:37:09.088Z,1.20
2022-11-10T02:39:44.220Z,1.30
2022-11-10T02:42:22.508Z,1.15
2022-11-10T02:44:59.240Z,1.40
2022-11-10T02:47:34.892Z,1.27
2022-11-10T02:50:09.324Z,1.50
2022-11-10T02:52:50.953Z,1.27
2022-11-10T02:55:25.874Z,1.50
2022-11-10T02:58:02.982Z,1.20
2022-11-10T03:00:39.331Z,1.70
2022-11-10T03:03:17.509Z,1.30
2022-11-10T03:05:51.653Z,1.20
2022-11-10T03:08:27.800Z,1.20
2022-11-10T03:11:01.410Z,1.42
2022-11-10T03:13:58.583Z,1.50
2022-11-10T03:16:29.118Z,1.30
2022-11-10T03:19:03.169Z,1.45
2022-11-10T03:21:38.854Z,1.60
2022-11-10T03:24:17.696Z,1.60
2022-11-10T03:26:52.078Z,1.23
2022-11-10T03:29:26.587Z,1.45
2022-11-10T03:31:57.547Z,1.60
2022-11-10T03:34:31.629Z,1.60
2022-11-10T03:37:02.520Z,1.30
2022-11-10T03:39:34.872Z,1.83
2022-11-10T03:42:05.765Z,1.80
2022-11-10T03:44:35.723Z,1.67
2022-11-10T03:47:05.627Z,1.60
2022-11-10T03:49:36.322Z,1.88
2022-11-10T03:52:07.448Z,1.40
2022-11-10T03:54:40.004Z,1.50
2022-11-10T03:57:09.856Z,1.23
2022-11-10T03:59:40.239Z,1.63
2022-11-10T04:02:10.759Z,1.70
2022-11-10T04:04:57.845Z,1.70
2022-11-10T04:07:44.691Z,1.60
2022-11-10T04:10:17.787Z,1.70
2022-11-10T04:13:04.623Z,1.90
2022-11-10T04:15:47.382Z,1.70
2022-11-10T04:18:24.962Z,1.60
2022-11-10T04:20:57.866Z,1.60
2022-11-10T04:23:35.735Z,1.70
2022-11-10T04:26:26.814Z,1.58
2022-11-10T04:28:59.604Z,1.48
2022-11-10T04:31:33.959Z,1.83
2022-11-10T04:34:04.208Z,1.67
2022-11-10T04:36:37.371Z,1.80
2022-11-10T04:39:09.771Z,1.70
2022-11-10T04:41:42.341Z,1.77
2022-11-10T04:44:12.321Z,1.50
2022-11-10T04:46:44.578Z,1.80
2022-11-10T04:49:15.279Z,1.60
2022-11-10T04:51:45.828Z,1.50
2022-11-10T04:54:15.959Z,1.38
2022-11-10T04:56:48.080Z,1.25
2022-11-10T04:59:18.561Z,1.40
2022-11-10T05:01:48.881Z,1.70
2022-11-10T05:04:19.462Z,1.42
2022-11-10T05:06:49.481Z,1.60
2022-11-10T05:09:19.994Z,1.42
2022-11-10T05:11:52.298Z,1.63
2022-11-10T05:14:22.283Z,1.38
2022-11-10T05:16:52.504Z,1.45
2022-11-10T05:19:22.687Z,1.50
2022-11-10T05:21:53.293Z,1.65
2022-11-10T05:24:23.272Z,1.60
2022-11-10T05:26:55.698Z,1.50
2022-11-10T05:29:26.327Z,1.48
2022-11-10T05:31:56.500Z,1.70
2022-11-10T05:34:26.985Z,1.63
2022-11-10T05:36:57.859Z,1.52
2022-11-10T05:39:27.953Z,1.60
2022-11-10T05:42:00.675Z,1.75
2022-11-10T05:44:31.161Z,1.40
2022-11-10T05:47:01.653Z,1.55
2022-11-10T05:49:32.230Z,1.48
2022-11-10T05:52:02.585Z,1.25
2022-11-10T05:54:32.704Z,1.40
2022-11-10T05:57:04.661Z,1.58
2022-11-10T05:59:35.602Z,1.55
2022-11-10T06:02:05.565Z,1.55
2022-11-10T06:04:39.048Z,1.70
2022-11-10T06:07:10.629Z,1.60
2022-11-10T06:09:40.999Z,1.45
2022-11-10T06:12:13.893Z,1.58
2022-11-10T06:14:44.758Z,1.77
2022-11-10T06:17:15.137Z,1.60
2022-11-10T06:19:45.060Z,1.60
2022-11-10T06:22:15.608Z,1.70
2022-11-10T06:24:46.237Z,1.90
2022-11-10T06:27:18.112Z,1.85
2022-11-10T06:29:48.517Z,1.63
2022-11-10T06:32:19.410Z,1.65
2022-11-10T06:34:49.786Z,1.33
2022-11-10T06:37:20.309Z,1.33
2022-11-10T06:39:50.478Z,1.58
2022-11-10T06:42:22.613Z,1.70
2022-11-10T06:44:53.147Z,1.70
2022-11-10T06:47:23.725Z,1.58
2022-11-10T06:49:54.305Z,1.40
2022-11-10T06:52:24.371Z,1.38
2022-11-10T06:54:54.775Z,1.60
2022-11-10T06:57:26.468Z,1.67
2022-11-10T06:59:57.111Z,1.38
2022-11-10T07:02:27.549Z,1.50
2022-11-10T07:04:58.200Z,1.38
2022-11-10T07:07:28.005Z,1.40
2022-11-10T07:10:00.536Z,1.42
2022-11-10T07:12:35.736Z,1.20
2022-11-10T07:15:06.591Z,1.40
2022-11-10T07:17:43.587Z,1.40
2022-11-10T07:20:14.723Z,1.35
2022-11-10T07:22:44.892Z,1.20
2022-11-10T07:25:15.209Z,1.30
2022-11-10T07:27:47.075Z,1.20
2022-11-10T07:30:17.765Z,1.20
2022-11-10T07:32:48.400Z,1.00
2022-11-10T07:35:19.045Z,1.20
2022-11-10T07:37:49.699Z,1.60
2022-11-10T07:40:19.979Z,1.40
2022-11-10T07:42:51.402Z,1.15
2022-11-10T07:45:21.404Z,1.25
2022-11-10T07:47:51.987Z,1.30
2022-11-10T07:50:22.200Z,1.35
2022-11-10T07:52:53.123Z,1.38
2022-11-10T07:55:23.157Z,1.40
2022-11-10T07:57:59.892Z,1.15
2022-11-10T08:00:30.039Z,1.33
2022-11-10T08:03:05.818Z,1.08
2022-11-10T08:05:37.389Z,1.33
2022-11-10T08:08:07.978Z,1.48
2022-11-10T08:10:38.622Z,1.30
2022-11-10T08:13:12.847Z,1.27
2022-11-10T08:15:44.719Z,1.33
2022-11-10T08:18:21.760Z,1.23
2022-11-10T08:20:51.924Z,1.33
2022-11-10T08:23:22.235Z,1.27
2022-11-10T08:25:53.726Z,1.30
2022-11-10T08:28:26.645Z,1.30
2022-11-10T08:31:01.512Z,1.33
2022-11-10T08:33:34.616Z,1.10
2022-11-10T08:36:05.359Z,1.30
2022-11-10T08:38:35.364Z,1.13
2022-11-10T08:41:05.816Z,1.40
2022-11-10T08:43:38.235Z,1.35
2022-11-10T08:46:09.618Z,1.35
2022-11-10T08:48:40.111Z,1.45
2022-11-10T08:51:10.250Z,1.48
2022-11-10T08:53:40.248Z,1.38
2022-11-10T08:56:11.224Z,1.30
2022-11-10T08:58:50.203Z,1.42
2022-11-10T09:01:23.282Z,1.45
2022-11-10T09:03:53.898Z,1.50
2022-11-10T09:06:24.491Z,1.42
2022-11-10T09:08:54.991Z,1.52
2022-11-10T09:11:25.394Z,1.40
2022-11-10T09:13:57.425Z,1.40
2022-11-10T09:16:27.855Z,1.65
2022-11-10T09:18:57.998Z,1.40
2022-11-10T09:21:28.448Z,1.48
2022-11-10T09:23:58.884Z,1.10
2022-11-10T09:26:29.224Z,1.30
2022-11-10T09:29:01.191Z,1.38
2022-11-10T09:31:31.672Z,1.40
2022-11-10T09:34:02.123Z,1.33
2022-11-10T09:36:32.690Z,1.30
2022-11-10T09:39:03.606Z,1.08
2022-11-10T09:41:34.014Z,1.20
2022-11-10T09:44:20.358Z,1.38
2022-11-10T09:47:00.376Z,1.38
2022-11-10T09:49:40.698Z,1.40
2022-11-10T09:52:15.109Z,1.38
2022-11-10T09:54:51.627Z,1.40
2022-11-10T09:57:28.297Z,1.40
2022-11-10T09:59:59.985Z,1.27
2022-11-10T10:02:38.125Z,1.38
2022-11-10T10:05:38.160Z,1.10
2022-11-10T10:08:13.590Z,1.02
2022-11-10T10:10:50.008Z,1.20
2022-11-10T10:13:47.672Z,1.30
2022-11-10T10:16:31.577Z,1.40
2022-11-10T10:19:14.198Z,1.20
2022-11-10T10:22:04.634Z,1.25
2022-11-10T10:24:35.116Z,1.05
2022-11-10T10:27:14.130Z,1.30
2022-11-10T10:29:49.602Z,1.13
2022-11-10T10:32:23.829Z,1.23
2022-11-10T10:34:54.578Z,1.30
2022-11-10T10:37:37.106Z,1.30
2022-11-10T10:40:08.507Z,0.88
2022-11-10T10:42:41.249Z,1.27
2022-11-10T10:45:24.787Z,1.00
2022-11-10T10:48:00.159Z,1.00
2022-11-10T10:50:36.665Z,1.05
2022-11-10T10:53:17.042Z,1.05
2022-11-10T10:56:00.519Z,0.80
2022-11-10T10:58:34.020Z,1.33
2022-11-10T11:01:10.311Z,1.25
2022-11-10T11:03:49.100Z,1.30
2022-11-10T11:06:27.701Z,1.20
2022-11-10T11:09:01.736Z,1.30
2022-11-10T11:11:35.447Z,1.02
2022-11-10T11:14:23.327Z,1.10
2022-11-10T11:16:57.005Z,1.40
2022-11-10T11:19:33.205Z,1.40
2022-11-10T11:22:48.107Z,1.30
2022-11-10T11:25:31.462Z,1.38
2022-11-10T11:28:17.279Z,1.40
2022-11-10T11:31:07.016Z,1.15
2022-11-10T11:33:50.158Z,1.00
2022-11-10T11:36:41.517Z,1.10
2022-11-10T11:39:33.442Z,1.20
2022-11-10T11:42:22.172Z,1.20
2022-11-10T11:45:14.115Z,1.20
2022-11-10T11:48:05.979Z,1.00
2022-11-10T11:50:46.210Z,0.88
2022-11-10T11:53:44.978Z,1.20
2022-11-10T11:56:27.095Z,1.25
2022-11-10T11:59:21.301Z,1.30
2022-11-10T12:02:31.099Z,1.10
2022-11-10T12:05:19.642Z,1.00
2022-11-10T12:08:01.944Z,1.00
2022-11-10T12:10:51.241Z,0.98
2022-11-10T12:13:47.362Z,0.82
2022-11-10T12:16:29.423Z,0.80
2022-11-10T12:19:15.714Z,0.73
2022-11-10T12:21:54.491Z,0.77
2022-11-10T12:24:58.810Z,0.63
2022-11-10T12:27:38.120Z,0.70
2022-11-10T12:30:15.171Z,0.80
2022-11-10T12:32:55.873Z,0.60
2022-11-10T12:35:31.602Z,0.65
2022-11-10T12:38:08.710Z,0.73
2022-11-10T12:40:44.298Z,0.70
2022-11-10T12:43:31.517Z,0.70
2022-11-10T12:46:07.389Z,0.63
2022-11-10T12:48:50.475Z,0.57
2022-11-10T12:51:31.795Z,0.70
2022-11-10T12:54:02.254Z,0.73
2022-11-10T12:56:43.212Z,0.52
2022-11-10T12:59:35.657Z,0.57
2022-11-10T13:02:20.063Z,0.90
2022-11-10T13:05:12.918Z,0.63
2022-11-10T13:07:44.441Z,0.70
2022-11-10T13:10:28.835Z,0.70
2022-11-10T13:13:08.727Z,0.80
2022-11-10T13:16:02.489Z,0.60
2022-11-10T13:19:00.008Z,0.60
2022-11-10T13:22:14.460Z,0.68
2022-11-10T13:24:47.326Z,0.77
2022-11-10T13:27:58.226Z,0.82
2022-11-10T13:30:45.897Z,0.80
2022-11-10T13:33:40.139Z,0.80
2022-11-10T13:36:12.036Z,0.80
2022-11-10T13:38:44.686Z,0.65
2022-11-10T13:41:28.945Z,0.88
2022-11-10T13:44:00.769Z,0.75
2022-11-10T13:46:39.374Z,0.85
2022-11-10T13:49:40.878Z,1.00
2022-11-10T13:52:19.119Z,0.75
2022-11-10T13:55:24.055Z,0.88
2022-11-10T13:58:03.906Z,0.75
2022-11-10T14:00:37.466Z,0.65
2022-11-10T14:03:09.789Z,0.77
2022-11-10T14:06:19.127Z,0.80
2022-11-10T14:08:57.856Z,0.80
2022-11-10T14:11:38.224Z,0.82
2022-11-10T14:14:19.453Z,0.70
2022-11-10T14:16:50.852Z,0.52
2022-11-10T14:19:38.856Z,0.50
2022-11-10T14:22:25.131Z,0.90
2022-11-10T14:25:07.271Z,0.80
2022-11-10T14:27:41.402Z,0.63
2022-11-10T14:30:27.296Z,0.70
2022-11-10T14:33:01.507Z,0.75
2022-11-10T14:35:35.402Z,0.95
2022-11-10T14:38:20.334Z,0.73
2022-11-10T14:40:52.657Z,0.65
2022-11-10T14:43:32.867Z,0.60
2022-11-10T14:46:05.199Z,0.75
2022-11-10T14:48:40.850Z,0.70
2022-11-10T14:51:17.126Z,1.10
2022-11-10T14:53:55.536Z,0.60
2022-11-10T14:56:29.731Z,0.55
2022-11-10T14:59:04.148Z,0.70
2022-11-10T15:01:41.204Z,0.82
2022-11-10T15:04:16.462Z,0.65
2022-11-10T15:06:52.003Z,0.70
2022-11-10T15:09:31.367Z,0.75
2022-11-10T15:12:22.447Z,0.57
2022-11-10T15:15:01.626Z,0.70
2022-11-10T15:17:50.896Z,0.75
2022-11-10T15:20:41.875Z,0.90
2022-11-10T15:23:27.989Z,0.70
2022-11-10T15:26:03.243Z,0.60
2022-11-10T15:28:35.932Z,0.80
2022-11-10T15:31:10.374Z,0.77
2022-11-10T15:33:47.801Z,1.02
2022-11-10T15:36:32.440Z,0.90
2022-11-10T15:39:20.475Z,0.93
2022-11-10T15:42:00.103Z,1.20
2022-11-10T15:44:30.580Z,1.15
2022-11-10T15:47:02.776Z,1.00
2022-11-10T15:49:38.466Z,0.90
2022-11-10T15:52:18.751Z,1.00
2022-11-10T15:54:48.973Z,1.00
2022-11-10T15:57:22.996Z,1.13
2022-11-10T15:59:53.494Z,1.42
2022-11-10T16:02:27.190Z,1.70
2022-11-10T16:04:59.914Z,1.60
2022-11-10T16:07:31.128Z,1.40
2022-11-10T16:10:02.065Z,1.20
2022-11-10T16:12:35.401Z,1.40
2022-11-10T16:15:07.048Z,1.35
2022-11-10T16:17:38.454Z,1.50
2022-11-10T16:20:17.792Z,1.00
2022-11-10T16:22:48.380Z,1.40
2022-11-10T16:25:27.507Z,1.30
2022-11-10T16:28:05.241Z,1.40
2022-11-10T16:30:36.529Z,1.50
2022-11-10T16:33:07.520Z,1.33
2022-11-10T16:35:37.960Z,1.52
2022-11-10T16:38:28.666Z,1.45
2022-11-10T16:41:01.933Z,1.30
2022-11-10T16:43:34.261Z,1.42
2022-11-10T16:46:15.876Z,1.70
2022-11-10T16:48:49.178Z,1.13
2022-11-10T16:51:20.433Z,1.50
2022-11-10T16:53:53.128Z,1.40
2022-11-10T16:56:23.722Z,1.40
2022-11-10T16:59:02.506Z,1.38
2022-11-10T17:01:36.295Z,1.50
2022-11-10T17:04:12.440Z,1.42
2022-11-10T17:06:43.811Z,1.17
2022-11-10T17:09:20.596Z,1.40
2022-11-10T17:11:51.256Z,1.40
2022-11-10T17:14:23.796Z,1.35
2022-11-10T17:16:56.662Z,1.30
2022-11-10T17:19:29.723Z,1.40
2022-11-10T17:22:00.015Z,1.27
2022-11-10T17:24:30.551Z,1.45
2022-11-10T17:27:00.559Z,1.30
2022-11-10T17:29:33.317Z,1.00
2022-11-10T17:32:03.766Z,1.20
2022-11-10T17:34:34.493Z,1.20
2022-11-10T17:37:05.174Z,1.40
2022-11-10T17:39:36.725Z,1.38
2022-11-10T17:42:07.460Z,1.30
2022-11-10T17:44:41.751Z,1.52
2022-11-10T17:47:12.333Z,1.27
2022-11-10T17:49:42.864Z,1.40
2022-11-10T17:52:20.998Z,1.30
2022-11-10T17:54:51.711Z,1.52
2022-11-10T17:57:22.549Z,1.30
2022-11-10T17:59:55.929Z,1.27
2022-11-10T18:02:26.436Z,1.35
2022-11-10T18:05:10.258Z,1.40
2022-11-10T18:07:40.827Z,1.30
2022-11-10T18:10:14.574Z,1.25
2022-11-10T18:12:45.574Z,1.30
2022-11-10T18:15:20.343Z,1.50
2022-11-10T18:17:50.725Z,1.60
2022-11-10T18:20:21.397Z,1.80
2022-11-10T18:22:51.576Z,1.40
2022-11-10T18:25:21.888Z,1.52
2022-11-10T18:27:51.521Z,1.60
2022-11-10T18:30:24.621Z,1.60
2022-11-10T18:32:54.811Z,1.48
2022-11-10T18:35:25.467Z,1.60
2022-11-10T18:37:56.053Z,1.70
2022-11-10T18:40:26.631Z,1.52
2022-11-10T18:43:03.148Z,1.58
2022-11-10T18:45:39.494Z,1.40
2022-11-10T18:48:10.412Z,1.80
2022-11-10T18:50:41.629Z,1.40
2022-11-10T18:53:15.195Z,1.48
2022-11-10T18:55:55.632Z,1.40
2022-11-10T18:58:25.647Z,1.38
2022-11-10T19:01:06.508Z,1.45
2022-11-10T19:03:39.130Z,1.40
2022-11-10T19:06:09.939Z,1.77
2022-11-10T19:08:40.944Z,1.63
2022-11-10T19:11:13.655Z,1.63
2022-11-10T19:13:44.422Z,1.58
2022-11-10T19:16:19.884Z,1.48
2022-11-10T19:19:07.993Z,1.73
2022-11-10T19:21:38.019Z,1.45
2022-11-10T19:24:09.357Z,1.80
2022-11-10T19:26:39.501Z,1.70
2022-11-10T19:29:09.956Z,1.65
2022-11-10T19:31:42.114Z,2.10
2022-11-10T19:34:12.090Z,1.90
2022-11-10T19:36:42.665Z,1.80
2022-11-10T19:39:13.503Z,2.10
2022-11-10T19:41:44.067Z,2.30
2022-11-10T19:44:14.047Z,2.38
2022-11-10T19:46:47.243Z,2.10
2022-11-10T19:49:18.131Z,2.42
2022-11-10T19:51:48.353Z,2.42
2022-11-10T19:54:20.093Z,2.53
2022-11-10T19:56:50.184Z,2.30
2022-11-10T19:59:21.627Z,2.30
2022-11-10T20:01:54.170Z,2.17
2022-11-10T20:04:24.956Z,2.50
2022-11-10T20:07:14.818Z,2.30
2022-11-10T20:09:44.757Z,2.35
2022-11-10T20:12:15.204Z,2.53
2022-11-10T20:14:45.363Z,2.35
2022-11-10T20:17:18.156Z,2.60
2022-11-10T20:19:49.354Z,2.55
2022-11-10T20:22:19.545Z,3.05
2022-11-10T20:24:52.367Z,3.78
2022-11-10T20:27:23.055Z,4.32
2022-11-10T20:29:54.445Z,4.20
2022-11-10T20:32:28.551Z,4.22
2022-11-10T20:34:58.704Z,3.63
2022-11-10T20:37:29.279Z,3.78
2022-11-10T20:39:59.825Z,3.33
2022-11-10T20:42:30.259Z,3.17
2022-11-10T20:45:01.244Z,3.30
2022-11-10T20:47:33.750Z,3.50
2022-11-10T20:50:04.245Z,3.08
2022-11-10T20:52:36.195Z,3.03
2022-11-10T20:55:07.851Z,3.33
2022-11-10T20:57:38.732Z,3.40
2022-11-10T21:00:10.721Z,3.33
2022-11-10T21:02:42.885Z,3.40
2022-11-10T21:05:13.753Z,3.47
2022-11-10T21:07:44.284Z,3.50
2022-11-10T21:10:14.719Z,3.20
2022-11-10T21:12:55.076Z,3.10
2022-11-10T21:15:25.451Z,3.33
2022-11-10T21:17:57.279Z,3.15
2022-11-10T21:20:28.211Z,3.05
2022-11-10T21:23:03.186Z,3.10
2022-11-10T21:25:33.758Z,2.80
2022-11-10T21:28:06.039Z,3.00
2022-11-10T21:30:36.604Z,2.80
2022-11-10T21:33:11.132Z,2.65
2022-11-10T21:35:41.608Z,2.40
2022-11-10T21:38:15.654Z,2.47
2022-11-10T21:40:45.948Z,2.60
2022-11-10T21:43:16.322Z,2.42
2022-11-10T21:45:47.424Z,2.63
2022-11-10T21:48:19.926Z,2.70
2022-11-10T21:50:50.220Z,2.60
2022-11-10T21:53:21.775Z,2.63
2022-11-10T21:55:53.219Z,2.85
2022-11-10T21:58:23.659Z,2.80
2022-11-10T22:00:54.683Z,2.88
2022-11-10T22:03:27.745Z,2.90
2022-11-10T22:06:19.570Z,3.40
2022-11-10T22:08:50.527Z,3.40
2022-11-10T22:11:39.764Z,3.22
2022-11-10T22:14:32.290Z,2.95
2022-11-10T22:17:19.900Z,2.85
2022-11-10T22:19:52.265Z,2.45
2022-11-10T22:22:22.665Z,2.60
2022-11-10T22:24:53.311Z,2.88
2022-11-10T22:27:23.479Z,2.53
2022-11-10T22:29:54.022Z,2.53
2022-11-10T22:32:24.541Z,2.80
2022-11-10T22:34:57.076Z,3.10
2022-11-10T22:37:36.259Z,2.70
2022-11-10T22:40:23.809Z,2.50
2022-11-10T22:43:10.023Z,2.55
2022-11-10T22:45:39.725Z,2.55
2022-11-10T22:48:26.257Z,2.78
2022-11-10T22:51:02.306Z,3.10
2022-11-10T22:53:32.879Z,2.78
2022-11-10T22:56:03.622Z,2.80
2022-11-10T22:58:33.312Z,2.80
2022-11-10T23:01:08.738Z,3.08
2022-11-10T23:03:40.231Z,2.83
2022-11-10T23:06:13.510Z,2.58
2022-11-10T23:08:44.908Z,2.83
2022-11-10T23:11:17.283Z,2.78
2022-11-10T23:13:48.087Z,2.83
2022-11-10T23:16:21.008Z,2.92
2022-11-10T23:18:53.924Z,3.13
2022-11-10T23:21:29.902Z,3.05
2022-11-10T23:24:00.321Z,3.20
2022-11-10T23:26:34.316Z,2.90
2022-11-10T23:29:04.366Z,3.00
2022-11-10T23:31:34.862Z,3.03
2022-11-10T23:34:05.685Z,3.10
2022-11-10T23:36:37.615Z,2.97
2022-11-10T23:39:19.706Z,2.97
2022-11-10T23:41:50.236Z,2.83
2022-11-10T23:44:21.143Z,2.90
2022-11-10T23:46:51.431Z,3.15
2022-11-10T23:49:22.440Z,3.20
2022-11-10T23:51:55.362Z,3.08
2022-11-10T23:54:25.619Z,2.92
2022-11-10T23:56:56.344Z,3.00
2022-11-10T23:59:27.497Z,3.17
